sensor_id;sensor_type;location;lat;lon;timestamp;P1;durP1;ratioP1;P2;durP2;ratioP2
7573;SDS011;3828;48.922;9.116;2022-11-20T00:01:19;12.40;;;9.77;;
7573;SDS011;3828;48.922;9.116;2022-11-20T00:03:47;12.00;;;9.70;;
7573;SDS011;3828;48.922;9.116;2022-11-20T00:06:15;12.93;;;9.93;;
7573;SDS011;3828;48.922;9.116;2022-11-20T00:08:43;15.87;;;11.53;;
7573;SDS011;3828;48.922;9.116;2022-11-20T00:11:11;16.90;;;11.33;;
7573;SDS011;3828;48.922;9.116;2022-11-20T00:13:40;12.20;;;10.33;;
7573;SDS011;3828;48.922;9.116;2022-11-20T00:16:10;13.73;;;10.23;;
7573;SDS011;3828;48.922;9.116;2022-11-20T00:18:38;13.67;;;10.13;;
7573;SDS011;3828;48.922;9.116;2022-11-20T00:21:07;15.47;;;11.33;;
7573;SDS011;3828;48.922;9.116;2022-11-20T00:23:37;21.17;;;11.23;;
7573;SDS011;3828;48.922;9.116;2022-11-20T00:26:04;15.27;;;10.57;;
7573;SDS011;3828;48.922;9.116;2022-11-20T00:28:32;13.50;;;9.90;;
7573;SDS011;3828;48.922;9.116;2022-11-20T00:31:00;11.97;;;9.33;;
7573;SDS011;3828;48.922;9.116;2022-11-20T00:33:30;11.70;;;9.97;;
7573;SDS011;3828;48.922;9.116;2022-11-20T00:36:00;16.73;;;10.20;;
7573;SDS011;3828;48.922;9.116;2022-11-20T00:38:28;13.97;;;10.27;;
7573;SDS011;3828;48.922;9.116;2022-11-20T00:40:56;12.13;;;9.87;;
7573;SDS011;3828;48.922;9.116;2022-11-20T00:43:23;11.30;;;9.40;;
7573;SDS011;3828;48.922;9.116;2022-11-20T00:45:50;14.20;;;11.20;;
7573;SDS011;3828;48.922;9.116;2022-11-20T00:48:21;13.70;;;10.60;;
7573;SDS011;3828;48.922;9.116;2022-11-20T00:50:49;13.50;;;10.80;;
7573;SDS011;3828;48.922;9.116;2022-11-20T00:53:16;13.60;;;10.33;;
7573;SDS011;3828;48.922;9.116;2022-11-20T00:55:43;20.63;;;12.67;;
7573;SDS011;3828;48.922;9.116;2022-11-20T00:58:18;14.60;;;11.03;;
7573;SDS011;3828;48.922;9.116;2022-11-20T01:00:45;12.17;;;9.67;;
7573;SDS011;3828;48.922;9.116;2022-11-20T01:03:12;13.47;;;10.43;;
7573;SDS011;3828;48.922;9.116;2022-11-20T01:05:39;15.87;;;9.87;;
7573;SDS011;3828;48.922;9.116;2022-11-20T01:08:07;14.10;;;10.27;;
7573;SDS011;3828;48.922;9.116;2022-11-20T01:10:34;16.70;;;11.50;;
7573;SDS011;3828;48.922;9.116;2022-11-20T01:13:01;15.33;;;11.00;;
7573;SDS011;3828;48.922;9.116;2022-11-20T01:15:45;13.30;;;10.33;;
7573;SDS011;3828;48.922;9.116;2022-11-20T01:18:12;12.67;;;10.30;;
7573;SDS011;3828;48.922;9.116;2022-11-20T01:20:39;12.97;;;10.73;;
7573;SDS011;3828;48.922;9.116;2022-11-20T01:23:07;14.50;;;10.07;;
7573;SDS011;3828;48.922;9.116;2022-11-20T01:25:33;13.50;;;10.43;;
7573;SDS011;3828;48.922;9.116;2022-11-20T01:28:00;11.93;;;10.07;;
7573;SDS011;3828;48.922;9.116;2022-11-20T01:30:28;12.87;;;11.10;;
7573;SDS011;3828;48.922;9.116;2022-11-20T01:32:54;17.97;;;10.57;;
7573;SDS011;3828;48.922;9.116;2022-11-20T01:35:21;12.13;;;10.43;;
7573;SDS011;3828;48.922;9.116;2022-11-20T01:37:49;13.40;;;10.70;;
7573;SDS011;3828;48.922;9.116;2022-11-20T01:40:17;13.70;;;11.33;;
7573;SDS011;3828;48.922;9.116;2022-11-20T01:42:46;13.50;;;10.07;;
7573;SDS011;3828;48.922;9.116;2022-11-20T01:45:59;10.83;;;9.10;;
7573;SDS011;3828;48.922;9.116;2022-11-20T01:48:41;14.33;;;10.60;;
7573;SDS011;3828;48.922;9.116;2022-11-20T01:51:18;15.10;;;10.30;;
7573;SDS011;3828;48.922;9.116;2022-11-20T01:53:50;11.63;;;9.83;;
7573;SDS011;3828;48.922;9.116;2022-11-20T01:56:20;13.23;;;10.80;;
7573;SDS011;3828;48.922;9.116;2022-11-20T01:58:49;12.30;;;10.27;;
7573;SDS011;3828;48.922;9.116;2022-11-20T02:01:18;11.83;;;10.23;;
7573;SDS011;3828;48.922;9.116;2022-11-20T02:03:46;11.93;;;9.57;;
7573;SDS011;3828;48.922;9.116;2022-11-20T02:06:15;10.70;;;9.43;;
7573;SDS011;3828;48.922;9.116;2022-11-20T02:08:45;12.00;;;9.40;;
7573;SDS011;3828;48.922;9.116;2022-11-20T02:11:12;12.33;;;10.47;;
7573;SDS011;3828;48.922;9.116;2022-11-20T02:13:40;10.40;;;9.30;;
7573;SDS011;3828;48.922;9.116;2022-11-20T02:16:14;12.53;;;9.30;;
7573;SDS011;3828;48.922;9.116;2022-11-20T02:18:43;10.43;;;8.23;;
7573;SDS011;3828;48.922;9.116;2022-11-20T02:21:17;10.23;;;8.27;;
7573;SDS011;3828;48.922;9.116;2022-11-20T02:23:56;9.97;;;8.57;;
7573;SDS011;3828;48.922;9.116;2022-11-20T02:26:26;9.30;;;8.30;;
7573;SDS011;3828;48.922;9.116;2022-11-20T02:28:55;11.17;;;9.77;;
7573;SDS011;3828;48.922;9.116;2022-11-20T02:31:22;9.17;;;8.27;;
7573;SDS011;3828;48.922;9.116;2022-11-20T02:33:53;7.80;;;7.10;;
7573;SDS011;3828;48.922;9.116;2022-11-20T02:36:21;7.00;;;6.10;;
7573;SDS011;3828;48.922;9.116;2022-11-20T02:38:49;9.90;;;6.87;;
7573;SDS011;3828;48.922;9.116;2022-11-20T02:41:18;7.50;;;6.73;;
7573;SDS011;3828;48.922;9.116;2022-11-20T02:43:45;6.70;;;6.10;;
7573;SDS011;3828;48.922;9.116;2022-11-20T02:46:11;6.30;;;5.80;;
7573;SDS011;3828;48.922;9.116;2022-11-20T02:48:38;5.47;;;4.97;;
7573;SDS011;3828;48.922;9.116;2022-11-20T02:51:05;5.53;;;5.03;;
7573;SDS011;3828;48.922;9.116;2022-11-20T02:53:32;6.30;;;5.70;;
7573;SDS011;3828;48.922;9.116;2022-11-20T02:55:58;6.60;;;5.47;;
7573;SDS011;3828;48.922;9.116;2022-11-20T02:58:27;7.90;;;5.40;;
7573;SDS011;3828;48.922;9.116;2022-11-20T03:00:53;4.83;;;4.43;;
7573;SDS011;3828;48.922;9.116;2022-11-20T03:03:20;5.13;;;4.80;;
7573;SDS011;3828;48.922;9.116;2022-11-20T03:05:47;5.13;;;4.63;;
7573;SDS011;3828;48.922;9.116;2022-11-20T03:08:13;3.80;;;3.50;;
7573;SDS011;3828;48.922;9.116;2022-11-20T03:10:40;3.80;;;3.50;;
7573;SDS011;3828;48.922;9.116;2022-11-20T03:13:07;6.77;;;3.30;;
7573;SDS011;3828;48.922;9.116;2022-11-20T03:15:36;3.57;;;3.37;;
7573;SDS011;3828;48.922;9.116;2022-11-20T03:18:03;3.77;;;3.50;;
7573;SDS011;3828;48.922;9.116;2022-11-20T03:20:31;3.50;;;3.20;;
7573;SDS011;3828;48.922;9.116;2022-11-20T03:22:59;3.90;;;3.60;;
7573;SDS011;3828;48.922;9.116;2022-11-20T03:25:26;3.70;;;3.40;;
7573;SDS011;3828;48.922;9.116;2022-11-20T03:27:53;3.07;;;2.87;;
7573;SDS011;3828;48.922;9.116;2022-11-20T03:30:20;3.60;;;3.30;;
7573;SDS011;3828;48.922;9.116;2022-11-20T03:32:48;3.40;;;3.17;;
7573;SDS011;3828;48.922;9.116;2022-11-20T03:35:15;4.50;;;3.30;;
7573;SDS011;3828;48.922;9.116;2022-11-20T03:37:42;3.37;;;3.17;;
7573;SDS011;3828;48.922;9.116;2022-11-20T03:40:10;3.13;;;2.83;;
7573;SDS011;3828;48.922;9.116;2022-11-20T03:42:37;3.60;;;3.40;;
7573;SDS011;3828;48.922;9.116;2022-11-20T03:45:13;3.00;;;2.80;;
7573;SDS011;3828;48.922;9.116;2022-11-20T03:47:41;3.10;;;2.90;;
7573;SDS011;3828;48.922;9.116;2022-11-20T03:50:10;3.23;;;3.03;;
7573;SDS011;3828;48.922;9.116;2022-11-20T03:52:38;3.67;;;3.30;;
7573;SDS011;3828;48.922;9.116;2022-11-20T03:55:06;3.27;;;3.07;;
7573;SDS011;3828;48.922;9.116;2022-11-20T03:57:33;3.50;;;3.20;;
7573;SDS011;3828;48.922;9.116;2022-11-20T04:00:00;3.80;;;3.60;;
7573;SDS011;3828;48.922;9.116;2022-11-20T04:02:26;3.87;;;3.57;;
7573;SDS011;3828;48.922;9.116;2022-11-20T04:04:53;3.50;;;3.10;;
7573;SDS011;3828;48.922;9.116;2022-11-20T04:07:21;4.20;;;3.50;;
7573;SDS011;3828;48.922;9.116;2022-11-20T04:09:48;3.47;;;3.27;;
7573;SDS011;3828;48.922;9.116;2022-11-20T04:12:15;3.77;;;3.47;;
7573;SDS011;3828;48.922;9.116;2022-11-20T04:14:42;3.27;;;2.90;;
7573;SDS011;3828;48.922;9.116;2022-11-20T04:17:08;3.93;;;3.63;;
7573;SDS011;3828;48.922;9.116;2022-11-20T04:19:35;3.40;;;3.20;;
7573;SDS011;3828;48.922;9.116;2022-11-20T04:22:02;3.43;;;3.20;;
7573;SDS011;3828;48.922;9.116;2022-11-20T04:24:30;7.13;;;4.20;;
7573;SDS011;3828;48.922;9.116;2022-11-20T04:26:57;3.77;;;3.47;;
7573;SDS011;3828;48.922;9.116;2022-11-20T04:29:23;3.93;;;3.63;;
7573;SDS011;3828;48.922;9.116;2022-11-20T04:31:50;3.73;;;3.53;;
7573;SDS011;3828;48.922;9.116;2022-11-20T04:34:17;3.70;;;3.40;;
7573;SDS011;3828;48.922;9.116;2022-11-20T04:36:44;3.40;;;3.10;;
7573;SDS011;3828;48.922;9.116;2022-11-20T04:39:11;3.70;;;3.40;;
7573;SDS011;3828;48.922;9.116;2022-11-20T04:41:40;4.10;;;3.63;;
7573;SDS011;3828;48.922;9.116;2022-11-20T04:44:07;4.60;;;3.63;;
7573;SDS011;3828;48.922;9.116;2022-11-20T04:46:35;3.83;;;3.63;;
7573;SDS011;3828;48.922;9.116;2022-11-20T04:49:03;4.03;;;3.63;;
7573;SDS011;3828;48.922;9.116;2022-11-20T04:51:30;4.60;;;4.20;;
7573;SDS011;3828;48.922;9.116;2022-11-20T04:53:58;4.47;;;3.77;;
7573;SDS011;3828;48.922;9.116;2022-11-20T04:56:25;4.73;;;4.33;;
7573;SDS011;3828;48.922;9.116;2022-11-20T04:58:53;4.57;;;4.27;;
7573;SDS011;3828;48.922;9.116;2022-11-20T05:01:20;4.37;;;4.07;;
7573;SDS011;3828;48.922;9.116;2022-11-20T05:03:49;5.20;;;4.47;;
7573;SDS011;3828;48.922;9.116;2022-11-20T05:06:17;5.07;;;4.30;;
7573;SDS011;3828;48.922;9.116;2022-11-20T05:08:45;4.70;;;3.90;;
7573;SDS011;3828;48.922;9.116;2022-11-20T05:11:12;4.27;;;3.33;;
7573;SDS011;3828;48.922;9.116;2022-11-20T05:13:40;4.30;;;3.90;;
7573;SDS011;3828;48.922;9.116;2022-11-20T05:16:10;3.97;;;3.67;;
7573;SDS011;3828;48.922;9.116;2022-11-20T05:18:38;5.47;;;3.83;;
7573;SDS011;3828;48.922;9.116;2022-11-20T05:21:06;3.47;;;3.27;;
7573;SDS011;3828;48.922;9.116;2022-11-20T05:23:33;3.70;;;3.50;;
7573;SDS011;3828;48.922;9.116;2022-11-20T05:26:01;3.57;;;3.30;;
7573;SDS011;3828;48.922;9.116;2022-11-20T05:28:28;4.17;;;3.73;;
7573;SDS011;3828;48.922;9.116;2022-11-20T05:30:56;3.60;;;3.30;;
7573;SDS011;3828;48.922;9.116;2022-11-20T05:33:32;3.63;;;3.43;;
7573;SDS011;3828;48.922;9.116;2022-11-20T05:35:59;4.03;;;3.67;;
7573;SDS011;3828;48.922;9.116;2022-11-20T05:38:26;4.07;;;3.53;;
7573;SDS011;3828;48.922;9.116;2022-11-20T05:40:53;3.67;;;3.47;;
7573;SDS011;3828;48.922;9.116;2022-11-20T05:43:19;3.90;;;3.50;;
7573;SDS011;3828;48.922;9.116;2022-11-20T05:45:51;3.87;;;3.57;;
7573;SDS011;3828;48.922;9.116;2022-11-20T05:48:19;4.37;;;3.30;;
7573;SDS011;3828;48.922;9.116;2022-11-20T05:50:47;4.00;;;3.80;;
7573;SDS011;3828;48.922;9.116;2022-11-20T05:53:14;3.90;;;3.60;;
7573;SDS011;3828;48.922;9.116;2022-11-20T05:55:41;3.67;;;3.47;;
7573;SDS011;3828;48.922;9.116;2022-11-20T05:58:07;3.67;;;3.37;;
7573;SDS011;3828;48.922;9.116;2022-11-20T06:00:35;3.43;;;3.23;;
7573;SDS011;3828;48.922;9.116;2022-11-20T06:03:02;3.30;;;3.10;;
7573;SDS011;3828;48.922;9.116;2022-11-20T06:05:29;3.60;;;3.40;;
7573;SDS011;3828;48.922;9.116;2022-11-20T06:07:57;3.50;;;3.27;;
7573;SDS011;3828;48.922;9.116;2022-11-20T06:10:26;3.30;;;2.93;;
7573;SDS011;3828;48.922;9.116;2022-11-20T06:12:53;3.70;;;3.40;;
7573;SDS011;3828;48.922;9.116;2022-11-20T06:15:23;3.27;;;3.07;;
7573;SDS011;3828;48.922;9.116;2022-11-20T06:17:51;5.10;;;3.87;;
7573;SDS011;3828;48.922;9.116;2022-11-20T06:20:18;4.07;;;3.43;;
7573;SDS011;3828;48.922;9.116;2022-11-20T06:22:46;3.17;;;2.90;;
7573;SDS011;3828;48.922;9.116;2022-11-20T06:25:14;3.83;;;3.53;;
7573;SDS011;3828;48.922;9.116;2022-11-20T06:27:41;3.40;;;3.10;;
7573;SDS011;3828;48.922;9.116;2022-11-20T06:30:08;4.17;;;3.83;;
7573;SDS011;3828;48.922;9.116;2022-11-20T06:32:36;3.80;;;3.60;;
7573;SDS011;3828;48.922;9.116;2022-11-20T06:35:03;3.60;;;3.27;;
7573;SDS011;3828;48.922;9.116;2022-11-20T06:37:30;2.93;;;2.73;;
7573;SDS011;3828;48.922;9.116;2022-11-20T06:39:57;3.77;;;3.27;;
7573;SDS011;3828;48.922;9.116;2022-11-20T06:42:25;3.40;;;3.20;;
7573;SDS011;3828;48.922;9.116;2022-11-20T06:44:52;3.30;;;3.10;;
7573;SDS011;3828;48.922;9.116;2022-11-20T06:47:19;3.47;;;3.27;;
7573;SDS011;3828;48.922;9.116;2022-11-20T06:49:45;3.47;;;3.17;;
7573;SDS011;3828;48.922;9.116;2022-11-20T06:52:12;3.40;;;3.10;;
7573;SDS011;3828;48.922;9.116;2022-11-20T06:54:39;3.80;;;3.53;;
7573;SDS011;3828;48.922;9.116;2022-11-20T06:57:06;3.73;;;3.40;;
7573;SDS011;3828;48.922;9.116;2022-11-20T06:59:34;3.50;;;3.20;;
7573;SDS011;3828;48.922;9.116;2022-11-20T07:02:00;3.50;;;3.20;;
7573;SDS011;3828;48.922;9.116;2022-11-20T07:04:27;6.10;;;3.40;;
7573;SDS011;3828;48.922;9.116;2022-11-20T07:06:54;3.10;;;2.87;;
7573;SDS011;3828;48.922;9.116;2022-11-20T07:09:21;3.73;;;3.43;;
7573;SDS011;3828;48.922;9.116;2022-11-20T07:11:48;3.70;;;3.10;;
7573;SDS011;3828;48.922;9.116;2022-11-20T07:14:14;3.17;;;2.90;;
7573;SDS011;3828;48.922;9.116;2022-11-20T07:16:43;3.50;;;3.20;;
7573;SDS011;3828;48.922;9.116;2022-11-20T07:19:09;3.20;;;3.00;;
7573;SDS011;3828;48.922;9.116;2022-11-20T07:21:36;3.73;;;3.43;;
7573;SDS011;3828;48.922;9.116;2022-11-20T07:24:03;3.67;;;3.40;;
7573;SDS011;3828;48.922;9.116;2022-11-20T07:26:30;3.97;;;3.67;;
7573;SDS011;3828;48.922;9.116;2022-11-20T07:28:57;3.87;;;3.50;;
7573;SDS011;3828;48.922;9.116;2022-11-20T07:31:24;3.50;;;3.20;;
7573;SDS011;3828;48.922;9.116;2022-11-20T07:33:52;3.50;;;3.30;;
7573;SDS011;3828;48.922;9.116;2022-11-20T07:36:19;3.60;;;3.30;;
7573;SDS011;3828;48.922;9.116;2022-11-20T07:38:46;3.73;;;3.43;;
7573;SDS011;3828;48.922;9.116;2022-11-20T07:41:13;4.10;;;3.80;;
7573;SDS011;3828;48.922;9.116;2022-11-20T07:43:40;4.70;;;4.30;;
7573;SDS011;3828;48.922;9.116;2022-11-20T07:46:07;4.20;;;3.40;;
7573;SDS011;3828;48.922;9.116;2022-11-20T07:48:33;3.60;;;3.10;;
7573;SDS011;3828;48.922;9.116;2022-11-20T07:51:02;3.70;;;3.37;;
7573;SDS011;3828;48.922;9.116;2022-11-20T07:53:28;3.90;;;3.50;;
7573;SDS011;3828;48.922;9.116;2022-11-20T07:55:58;3.33;;;3.10;;
7573;SDS011;3828;48.922;9.116;2022-11-20T07:58:25;3.90;;;3.60;;
7573;SDS011;3828;48.922;9.116;2022-11-20T08:00:54;4.07;;;3.53;;
7573;SDS011;3828;48.922;9.116;2022-11-20T08:03:21;2.97;;;2.73;;
7573;SDS011;3828;48.922;9.116;2022-11-20T08:05:48;3.17;;;2.70;;
7573;SDS011;3828;48.922;9.116;2022-11-20T08:08:17;3.40;;;3.10;;
7573;SDS011;3828;48.922;9.116;2022-11-20T08:10:43;3.73;;;3.33;;
7573;SDS011;3828;48.922;9.116;2022-11-20T08:13:10;3.57;;;3.23;;
7573;SDS011;3828;48.922;9.116;2022-11-20T08:15:57;3.20;;;3.00;;
7573;SDS011;3828;48.922;9.116;2022-11-20T08:18:23;3.17;;;2.97;;
7573;SDS011;3828;48.922;9.116;2022-11-20T08:20:50;3.43;;;3.13;;
7573;SDS011;3828;48.922;9.116;2022-11-20T08:23:18;3.87;;;2.70;;
7573;SDS011;3828;48.922;9.116;2022-11-20T08:25:48;2.50;;;2.30;;
7573;SDS011;3828;48.922;9.116;2022-11-20T08:28:15;2.37;;;2.27;;
7573;SDS011;3828;48.922;9.116;2022-11-20T08:30:42;1.93;;;1.83;;
7573;SDS011;3828;48.922;9.116;2022-11-20T08:33:10;2.10;;;2.00;;
7573;SDS011;3828;48.922;9.116;2022-11-20T08:35:38;2.30;;;2.20;;
7573;SDS011;3828;48.922;9.116;2022-11-20T08:38:06;2.10;;;2.00;;
7573;SDS011;3828;48.922;9.116;2022-11-20T08:40:34;1.50;;;1.50;;
7573;SDS011;3828;48.922;9.116;2022-11-20T08:43:01;1.73;;;1.67;;
7573;SDS011;3828;48.922;9.116;2022-11-20T08:45:28;1.90;;;1.80;;
7573;SDS011;3828;48.922;9.116;2022-11-20T08:47:59;1.70;;;1.60;;
7573;SDS011;3828;48.922;9.116;2022-11-20T08:50:26;2.70;;;1.90;;
7573;SDS011;3828;48.922;9.116;2022-11-20T08:53:01;1.80;;;1.70;;
7573;SDS011;3828;48.922;9.116;2022-11-20T08:55:28;6.50;;;4.87;;
7573;SDS011;3828;48.922;9.116;2022-11-20T08:57:56;3.70;;;3.40;;
7573;SDS011;3828;48.922;9.116;2022-11-20T09:00:23;2.00;;;1.90;;
7573;SDS011;3828;48.922;9.116;2022-11-20T09:02:50;2.27;;;1.67;;
7573;SDS011;3828;48.922;9.116;2022-11-20T09:05:17;1.80;;;1.70;;
7573;SDS011;3828;48.922;9.116;2022-11-20T09:07:44;1.73;;;1.60;;
7573;SDS011;3828;48.922;9.116;2022-11-20T09:10:11;1.50;;;1.50;;
7573;SDS011;3828;48.922;9.116;2022-11-20T09:12:38;1.80;;;1.70;;
7573;SDS011;3828;48.922;9.116;2022-11-20T09:15:06;1.57;;;1.57;;
7573;SDS011;3828;48.922;9.116;2022-11-20T09:17:34;1.70;;;1.70;;
7573;SDS011;3828;48.922;9.116;2022-11-20T09:20:00;1.80;;;1.70;;
7573;SDS011;3828;48.922;9.116;2022-11-20T09:22:27;1.40;;;1.40;;
7573;SDS011;3828;48.922;9.116;2022-11-20T09:24:54;1.50;;;1.50;;
7573;SDS011;3828;48.922;9.116;2022-11-20T09:27:21;2.97;;;1.80;;
7573;SDS011;3828;48.922;9.116;2022-11-20T09:29:48;1.80;;;1.70;;
7573;SDS011;3828;48.922;9.116;2022-11-20T09:32:16;1.80;;;1.70;;
7573;SDS011;3828;48.922;9.116;2022-11-20T09:34:43;1.40;;;1.40;;
7573;SDS011;3828;48.922;9.116;2022-11-20T09:37:10;1.87;;;1.77;;
7573;SDS011;3828;48.922;9.116;2022-11-20T09:39:37;2.30;;;1.50;;
7573;SDS011;3828;48.922;9.116;2022-11-20T09:42:07;1.70;;;1.60;;
7573;SDS011;3828;48.922;9.116;2022-11-20T09:44:51;1.80;;;1.70;;
7573;SDS011;3828;48.922;9.116;2022-11-20T09:47:32;1.90;;;1.80;;
7573;SDS011;3828;48.922;9.116;2022-11-20T09:50:16;2.00;;;1.83;;
7573;SDS011;3828;48.922;9.116;2022-11-20T09:52:55;1.87;;;1.80;;
7573;SDS011;3828;48.922;9.116;2022-11-20T09:55:38;1.77;;;1.70;;
7573;SDS011;3828;48.922;9.116;2022-11-20T09:58:05;2.50;;;2.30;;
7573;SDS011;3828;48.922;9.116;2022-11-20T10:00:34;2.77;;;2.57;;
7573;SDS011;3828;48.922;9.116;2022-11-20T10:03:06;2.53;;;2.43;;
7573;SDS011;3828;48.922;9.116;2022-11-20T10:05:40;2.83;;;2.67;;
7573;SDS011;3828;48.922;9.116;2022-11-20T10:08:12;3.53;;;2.87;;
7573;SDS011;3828;48.922;9.116;2022-11-20T10:10:43;3.80;;;2.80;;
7573;SDS011;3828;48.922;9.116;2022-11-20T10:13:25;2.87;;;2.67;;
7573;SDS011;3828;48.922;9.116;2022-11-20T10:16:01;2.60;;;2.40;;
7573;SDS011;3828;48.922;9.116;2022-11-20T10:18:41;2.83;;;2.63;;
7573;SDS011;3828;48.922;9.116;2022-11-20T10:21:21;2.50;;;2.40;;
7573;SDS011;3828;48.922;9.116;2022-11-20T10:23:57;2.43;;;2.23;;
7573;SDS011;3828;48.922;9.116;2022-11-20T10:26:44;2.03;;;1.93;;
7573;SDS011;3828;48.922;9.116;2022-11-20T10:29:21;2.47;;;2.37;;
7573;SDS011;3828;48.922;9.116;2022-11-20T10:31:54;2.07;;;1.97;;
7573;SDS011;3828;48.922;9.116;2022-11-20T10:34:28;2.00;;;1.90;;
7573;SDS011;3828;48.922;9.116;2022-11-20T10:37:01;3.20;;;2.83;;
7573;SDS011;3828;48.922;9.116;2022-11-20T10:39:33;2.37;;;2.27;;
7573;SDS011;3828;48.922;9.116;2022-11-20T10:42:07;2.20;;;2.10;;
7573;SDS011;3828;48.922;9.116;2022-11-20T10:44:37;2.47;;;2.37;;
7573;SDS011;3828;48.922;9.116;2022-11-20T10:47:26;2.20;;;2.10;;
7573;SDS011;3828;48.922;9.116;2022-11-20T10:50:00;2.10;;;2.00;;
7573;SDS011;3828;48.922;9.116;2022-11-20T10:52:32;2.70;;;2.50;;
7573;SDS011;3828;48.922;9.116;2022-11-20T10:55:07;2.50;;;2.40;;
7573;SDS011;3828;48.922;9.116;2022-11-20T10:57:52;2.77;;;2.57;;
7573;SDS011;3828;48.922;9.116;2022-11-20T11:00:24;3.23;;;2.93;;
7573;SDS011;3828;48.922;9.116;2022-11-20T11:02:51;2.80;;;2.60;;
7573;SDS011;3828;48.922;9.116;2022-11-20T11:05:29;3.17;;;2.90;;
7573;SDS011;3828;48.922;9.116;2022-11-20T11:08:02;3.70;;;3.30;;
7573;SDS011;3828;48.922;9.116;2022-11-20T11:10:32;3.30;;;3.00;;
7573;SDS011;3828;48.922;9.116;2022-11-20T11:13:06;3.70;;;3.40;;
7573;SDS011;3828;48.922;9.116;2022-11-20T11:15:36;3.43;;;3.23;;
7573;SDS011;3828;48.922;9.116;2022-11-20T11:18:07;3.77;;;3.47;;
7573;SDS011;3828;48.922;9.116;2022-11-20T11:20:37;3.00;;;2.70;;
7573;SDS011;3828;48.922;9.116;2022-11-20T11:23:04;4.03;;;3.63;;
7573;SDS011;3828;48.922;9.116;2022-11-20T11:25:31;3.43;;;3.23;;
7573;SDS011;3828;48.922;9.116;2022-11-20T11:28:00;3.60;;;3.30;;
7573;SDS011;3828;48.922;9.116;2022-11-20T11:30:28;3.40;;;2.90;;
7573;SDS011;3828;48.922;9.116;2022-11-20T11:33:06;2.93;;;2.73;;
7573;SDS011;3828;48.922;9.116;2022-11-20T11:35:43;2.30;;;2.20;;
7573;SDS011;3828;48.922;9.116;2022-11-20T11:38:12;4.10;;;2.43;;
7573;SDS011;3828;48.922;9.116;2022-11-20T11:40:43;4.77;;;2.53;;
7573;SDS011;3828;48.922;9.116;2022-11-20T11:43:16;2.23;;;2.03;;
7573;SDS011;3828;48.922;9.116;2022-11-20T11:45:59;2.23;;;2.10;;
7573;SDS011;3828;48.922;9.116;2022-11-20T11:48:26;6.37;;;2.07;;
7573;SDS011;3828;48.922;9.116;2022-11-20T11:50:54;2.13;;;1.93;;
7573;SDS011;3828;48.922;9.116;2022-11-20T11:53:21;2.53;;;1.97;;
7573;SDS011;3828;48.922;9.116;2022-11-20T11:55:52;2.20;;;2.00;;
7573;SDS011;3828;48.922;9.116;2022-11-20T11:58:31;3.27;;;1.70;;
7573;SDS011;3828;48.922;9.116;2022-11-20T12:01:08;2.70;;;1.80;;
7573;SDS011;3828;48.922;9.116;2022-11-20T12:03:49;2.93;;;1.60;;
7573;SDS011;3828;48.922;9.116;2022-11-20T12:06:23;2.03;;;1.87;;
7573;SDS011;3828;48.922;9.116;2022-11-20T12:08:51;1.97;;;1.83;;
7573;SDS011;3828;48.922;9.116;2022-11-20T12:11:23;1.90;;;1.80;;
7573;SDS011;3828;48.922;9.116;2022-11-20T12:13:58;5.63;;;1.70;;
7573;SDS011;3828;48.922;9.116;2022-11-20T12:16:31;2.63;;;1.80;;
7573;SDS011;3828;48.922;9.116;2022-11-20T12:19:01;1.70;;;1.60;;
7573;SDS011;3828;48.922;9.116;2022-11-20T12:21:31;2.00;;;1.83;;
7573;SDS011;3828;48.922;9.116;2022-11-20T12:24:10;3.17;;;2.60;;
7573;SDS011;3828;48.922;9.116;2022-11-20T12:27:02;2.37;;;2.10;;
7573;SDS011;3828;48.922;9.116;2022-11-20T12:29:47;3.97;;;2.00;;
7573;SDS011;3828;48.922;9.116;2022-11-20T12:32:31;1.30;;;1.30;;
7573;SDS011;3828;48.922;9.116;2022-11-20T12:35:25;1.87;;;1.77;;
7573;SDS011;3828;48.922;9.116;2022-11-20T12:38:26;5.03;;;1.60;;
7573;SDS011;3828;48.922;9.116;2022-11-20T12:41:07;1.87;;;1.67;;
7573;SDS011;3828;48.922;9.116;2022-11-20T12:44:04;1.90;;;1.67;;
7573;SDS011;3828;48.922;9.116;2022-11-20T12:47:01;2.40;;;1.50;;
7573;SDS011;3828;48.922;9.116;2022-11-20T12:49:36;2.80;;;1.60;;
7573;SDS011;3828;48.922;9.116;2022-11-20T12:52:11;1.50;;;1.40;;
7573;SDS011;3828;48.922;9.116;2022-11-20T12:54:53;1.83;;;1.73;;
7573;SDS011;3828;48.922;9.116;2022-11-20T12:57:35;1.40;;;1.30;;
7573;SDS011;3828;48.922;9.116;2022-11-20T13:00:14;2.87;;;1.70;;
7573;SDS011;3828;48.922;9.116;2022-11-20T13:02:48;1.90;;;1.80;;
7573;SDS011;3828;48.922;9.116;2022-11-20T13:05:44;1.60;;;1.60;;
7573;SDS011;3828;48.922;9.116;2022-11-20T13:08:20;1.73;;;1.63;;
7573;SDS011;3828;48.922;9.116;2022-11-20T13:10:50;1.90;;;1.73;;
7573;SDS011;3828;48.922;9.116;2022-11-20T13:13:23;3.03;;;1.80;;
7573;SDS011;3828;48.922;9.116;2022-11-20T13:15:58;2.37;;;2.10;;
7573;SDS011;3828;48.922;9.116;2022-11-20T13:18:28;1.47;;;1.47;;
7573;SDS011;3828;48.922;9.116;2022-11-20T13:21:12;1.83;;;1.73;;
7573;SDS011;3828;48.922;9.116;2022-11-20T13:23:40;2.30;;;1.80;;
7573;SDS011;3828;48.922;9.116;2022-11-20T13:26:15;2.37;;;1.73;;
7573;SDS011;3828;48.922;9.116;2022-11-20T13:28:46;1.87;;;1.60;;
7573;SDS011;3828;48.922;9.116;2022-11-20T13:31:28;2.43;;;2.00;;
7573;SDS011;3828;48.922;9.116;2022-11-20T13:34:01;2.53;;;2.33;;
7573;SDS011;3828;48.922;9.116;2022-11-20T13:36:31;1.53;;;1.40;;
7573;SDS011;3828;48.922;9.116;2022-11-20T13:39:00;1.67;;;1.40;;
7573;SDS011;3828;48.922;9.116;2022-11-20T13:41:29;2.20;;;2.10;;
7573;SDS011;3828;48.922;9.116;2022-11-20T13:43:59;3.67;;;2.07;;
7573;SDS011;3828;48.922;9.116;2022-11-20T13:46:36;1.70;;;1.60;;
7573;SDS011;3828;48.922;9.116;2022-11-20T13:49:07;1.70;;;1.60;;
7573;SDS011;3828;48.922;9.116;2022-11-20T13:51:37;1.80;;;1.70;;
7573;SDS011;3828;48.922;9.116;2022-11-20T13:54:19;2.20;;;1.60;;
7573;SDS011;3828;48.922;9.116;2022-11-20T13:57:01;1.97;;;1.80;;
7573;SDS011;3828;48.922;9.116;2022-11-20T13:59:42;3.70;;;1.63;;
7573;SDS011;3828;48.922;9.116;2022-11-20T14:02:16;2.23;;;1.50;;
7573;SDS011;3828;48.922;9.116;2022-11-20T14:04:45;2.53;;;1.60;;
7573;SDS011;3828;48.922;9.116;2022-11-20T14:07:13;1.83;;;1.60;;
7573;SDS011;3828;48.922;9.116;2022-11-20T14:09:49;2.50;;;1.60;;
7573;SDS011;3828;48.922;9.116;2022-11-20T14:12:19;1.67;;;1.57;;
7573;SDS011;3828;48.922;9.116;2022-11-20T14:14:49;1.50;;;1.40;;
7573;SDS011;3828;48.922;9.116;2022-11-20T14:17:18;1.60;;;1.50;;
7573;SDS011;3828;48.922;9.116;2022-11-20T14:19:47;1.70;;;1.60;;
7573;SDS011;3828;48.922;9.116;2022-11-20T14:22:18;1.50;;;1.40;;
7573;SDS011;3828;48.922;9.116;2022-11-20T14:24:47;1.57;;;1.57;;
7573;SDS011;3828;48.922;9.116;2022-11-20T14:27:15;1.60;;;1.50;;
7573;SDS011;3828;48.922;9.116;2022-11-20T14:29:45;1.70;;;1.60;;
7573;SDS011;3828;48.922;9.116;2022-11-20T14:32:14;1.90;;;1.80;;
7573;SDS011;3828;48.922;9.116;2022-11-20T14:34:43;1.40;;;1.40;;
7573;SDS011;3828;48.922;9.116;2022-11-20T14:37:13;1.80;;;1.70;;
7573;SDS011;3828;48.922;9.116;2022-11-20T14:39:48;1.43;;;1.33;;
7573;SDS011;3828;48.922;9.116;2022-11-20T14:42:17;1.77;;;1.67;;
7573;SDS011;3828;48.922;9.116;2022-11-20T14:44:47;3.10;;;2.83;;
7573;SDS011;3828;48.922;9.116;2022-11-20T14:47:17;3.27;;;2.87;;
7573;SDS011;3828;48.922;9.116;2022-11-20T14:49:47;3.37;;;1.73;;
7573;SDS011;3828;48.922;9.116;2022-11-20T14:52:15;2.23;;;1.87;;
7573;SDS011;3828;48.922;9.116;2022-11-20T14:54:44;2.30;;;2.10;;
7573;SDS011;3828;48.922;9.116;2022-11-20T14:57:22;2.43;;;1.97;;
7573;SDS011;3828;48.922;9.116;2022-11-20T15:00:02;2.47;;;2.23;;
7573;SDS011;3828;48.922;9.116;2022-11-20T15:02:30;2.13;;;2.00;;
7573;SDS011;3828;48.922;9.116;2022-11-20T15:04:58;1.87;;;1.77;;
7573;SDS011;3828;48.922;9.116;2022-11-20T15:07:29;2.07;;;1.77;;
7573;SDS011;3828;48.922;9.116;2022-11-20T15:10:00;3.97;;;2.37;;
7573;SDS011;3828;48.922;9.116;2022-11-20T15:12:28;2.37;;;2.17;;
7573;SDS011;3828;48.922;9.116;2022-11-20T15:14:57;2.80;;;2.20;;
7573;SDS011;3828;48.922;9.116;2022-11-20T15:17:24;3.50;;;2.90;;
7573;SDS011;3828;48.922;9.116;2022-11-20T15:19:51;4.17;;;3.10;;
7573;SDS011;3828;48.922;9.116;2022-11-20T15:22:19;3.57;;;3.07;;
7573;SDS011;3828;48.922;9.116;2022-11-20T15:24:46;4.37;;;3.27;;
7573;SDS011;3828;48.922;9.116;2022-11-20T15:27:13;3.27;;;2.97;;
7573;SDS011;3828;48.922;9.116;2022-11-20T15:29:40;4.50;;;2.63;;
7573;SDS011;3828;48.922;9.116;2022-11-20T15:32:09;4.13;;;3.53;;